createdAt,value
2019-05-14T00:00:21.743Z,74.77
2019-05-14T00:02:48.756Z,73.51
2019-05-14T00:05:15.534Z,74.61
2019-05-14T00:07:42.169Z,74.84
2019-05-14T00:10:11.804Z,74.86
2019-05-14T00:12:38.876Z,74.63
2019-05-14T00:15:05.900Z,74.23
2019-05-14T00:17:32.831Z,74.53
2019-05-14T00:20:08.995Z,76.07
2019-05-14T00:22:28.529Z,75.42
2019-05-14T00:24:55.121Z,74.00
2019-05-14T00:27:22.073Z,74.37
2019-05-14T00:29:51.595Z,74.54
2019-05-14T00:32:18.077Z,74.34
2019-05-14T00:34:44.761Z,75.10
2019-05-14T00:37:11.775Z,75.71
2019-05-14T00:39:41.324Z,74.76
2019-05-14T00:42:07.657Z,74.60
2019-05-14T00:44:34.514Z,74.27
2019-05-14T00:47:02.151Z,74.45
2019-05-14T00:49:31.532Z,74.55
2019-05-14T00:51:57.764Z,74.64
2019-05-14T00:54:24.510Z,74.46
2019-05-14T00:56:52.198Z,74.47
2019-05-14T00:59:21.517Z,74.99
2019-05-14T01:01:47.724Z,75.12
2019-05-14T01:04:14.431Z,74.50
2019-05-14T01:06:42.054Z,74.22
2019-05-14T01:09:11.285Z,74.63
2019-05-14T01:11:38.119Z,75.14
2019-05-14T01:14:04.883Z,74.34
2019-05-14T01:16:31.748Z,75.09
2019-05-14T01:18:58.945Z,74.38
2019-05-14T01:21:25.670Z,74.90
2019-05-14T01:23:52.325Z,74.44
2019-05-14T01:26:19.101Z,74.92
2019-05-14T01:29:42.561Z,75.02
2019-05-14T01:32:11.633Z,75.02
2019-05-14T01:34:41.958Z,74.64
2019-05-14T01:37:11.399Z,74.83
2019-05-14T01:39:37.470Z,74.60
2019-05-14T01:42:04.156Z,75.42
2019-05-14T01:44:31.860Z,74.75
2019-05-14T01:48:14.081Z,74.67
2019-05-14T01:50:41.387Z,74.83
2019-05-14T01:53:08.945Z,75.25
2019-05-14T01:55:35.555Z,74.82
2019-05-14T01:58:02.565Z,74.62
2019-05-14T02:00:31.413Z,75.31
2019-05-14T02:02:58.192Z,75.29
2019-05-14T02:05:24.927Z,75.03
2019-05-14T02:07:52.615Z,75.03
2019-05-14T02:10:22.078Z,74.81
2019-05-14T02:12:51.365Z,75.17
2019-05-14T02:15:21.396Z,75.68
2019-05-14T02:17:48.054Z,76.20
2019-05-14T02:20:16.114Z,75.63
2019-05-14T02:23:59.039Z,75.25
2019-05-14T02:26:25.997Z,75.53
2019-05-14T02:28:52.646Z,75.15
2019-05-14T02:31:20.271Z,75.43
2019-05-14T02:34:43.926Z,74.89
2019-05-14T02:37:10.709Z,74.86
2019-05-14T02:40:34.087Z,74.53
2019-05-14T02:43:01.950Z,74.67
2019-05-14T02:46:25.618Z,74.47
2019-05-14T02:48:52.232Z,74.94
2019-05-14T02:51:19.871Z,74.85
2019-05-14T02:53:49.855Z,75.19
2019-05-14T02:56:15.864Z,74.93
2019-05-14T02:58:42.692Z,74.71
2019-05-14T03:01:09.723Z,75.16
2019-05-14T03:03:39.830Z,76.27
2019-05-14T03:06:05.719Z,76.24
2019-05-14T03:08:32.780Z,75.16
2019-05-14T03:11:55.482Z,75.38
2019-05-14T03:14:22.431Z,75.72
2019-05-14T03:16:49.812Z,75.29
2019-05-14T03:19:19.584Z,74.83
2019-05-14T03:21:45.832Z,75.78
2019-05-14T03:24:12.870Z,74.89
2019-05-14T03:27:35.937Z,75.13
2019-05-14T03:30:05.086Z,75.25
2019-05-14T03:33:33.564Z,75.45
2019-05-14T03:36:06.286Z,74.69
2019-05-14T03:38:29.329Z,75.18
2019-05-14T03:41:00.009Z,75.02
2019-05-14T03:43:25.967Z,75.05
2019-05-14T03:45:53.380Z,75.07
2019-05-14T03:48:20.138Z,74.81
2019-05-14T03:50:49.549Z,74.94
2019-05-14T03:53:18.881Z,75.28
2019-05-14T03:55:45.615Z,74.81
2019-05-14T03:58:12.342Z,74.86
2019-05-14T04:00:44.802Z,74.95
2019-05-14T04:03:12.357Z,74.69
2019-05-14T04:05:40.242Z,74.86
2019-05-14T04:08:09.737Z,74.70
2019-05-14T04:10:41.909Z,73.96
2019-05-14T04:13:10.813Z,74.73
2019-05-14T04:15:39.591Z,75.59
2019-05-14T04:18:09.084Z,74.83
2019-05-14T04:20:39.299Z,75.23
2019-05-14T04:23:09.379Z,74.61
2019-05-14T04:25:38.948Z,75.51
2019-05-14T04:28:11.728Z,75.31
2019-05-14T04:30:40.461Z,74.63
2019-05-14T04:33:10.636Z,75.06
2019-05-14T04:35:40.138Z,75.38
2019-05-14T04:38:09.627Z,74.83
2019-05-14T04:41:32.119Z,74.49
2019-05-14T04:43:59.636Z,74.54
2019-05-14T04:46:30.027Z,75.41
2019-05-14T04:48:58.912Z,75.26
2019-05-14T04:51:25.934Z,74.88
2019-05-14T04:53:52.941Z,74.61
2019-05-14T04:56:20.015Z,74.52
2019-05-14T04:58:49.712Z,74.69
2019-05-14T05:01:15.701Z,75.49
2019-05-14T05:03:42.886Z,75.18
2019-05-14T05:06:10.164Z,76.04
2019-05-14T05:08:39.557Z,75.54
2019-05-14T05:11:09.094Z,74.92
2019-05-14T05:13:34.311Z,75.48
2019-05-14T05:16:00.876Z,74.62
2019-05-14T05:18:29.502Z,75.61
2019-05-14T05:20:58.272Z,74.26
2019-05-14T05:23:24.827Z,74.73
2019-05-14T05:25:51.588Z,75.29
2019-05-14T05:28:19.117Z,75.48
2019-05-14T05:30:46.090Z,74.27
2019-05-14T05:33:12.834Z,74.40
2019-05-14T05:35:42.323Z,75.63
2019-05-14T05:38:08.782Z,74.44
2019-05-14T05:40:35.683Z,74.39
2019-05-14T05:43:02.409Z,74.26
2019-05-14T05:45:29.149Z,73.39
2019-05-14T05:48:01.012Z,73.62
2019-05-14T05:50:24.723Z,74.06
2019-05-14T05:52:53.789Z,73.27
2019-05-14T05:55:20.107Z,73.51
2019-05-14T05:57:49.066Z,74.90
2019-05-14T06:00:21.712Z,75.09
2019-05-14T06:02:48.976Z,75.03
2019-05-14T06:05:18.548Z,74.39
2019-05-14T06:07:44.692Z,73.95
2019-05-14T06:10:11.510Z,73.65
2019-05-14T06:12:38.765Z,72.50
2019-05-14T06:15:08.695Z,73.42
2019-05-14T06:17:35.651Z,73.20
2019-05-14T06:20:03.916Z,73.41
2019-05-14T06:22:30.612Z,73.74
2019-05-14T06:24:58.726Z,73.79
2019-05-14T06:27:25.701Z,73.51
2019-05-14T06:29:54.403Z,73.88
2019-05-14T06:33:19.537Z,74.11
2019-05-14T06:35:48.393Z,73.34
2019-05-14T06:38:14.592Z,73.40
2019-05-14T06:40:41.190Z,73.89
2019-05-14T06:43:09.158Z,72.65
2019-05-14T06:45:38.838Z,72.98
2019-05-14T06:48:04.775Z,73.05
2019-05-14T06:50:31.563Z,73.33
2019-05-14T06:52:58.237Z,72.68
2019-05-14T06:55:25.119Z,72.60
2019-05-14T06:57:51.911Z,72.73
2019-05-14T07:00:19.416Z,73.34
2019-05-14T07:02:48.893Z,72.63
2019-05-14T07:05:15.379Z,72.87
2019-05-14T07:07:42.005Z,73.17
2019-05-14T07:10:09.225Z,73.48
2019-05-14T07:12:38.802Z,72.78
2019-05-14T07:15:09.053Z,73.85
2019-05-14T07:17:35.259Z,74.32
2019-05-14T07:20:08.677Z,75.53
2019-05-14T07:22:34.877Z,74.15
2019-05-14T07:25:01.438Z,72.59
2019-05-14T07:27:28.406Z,72.80
2019-05-14T07:29:55.303Z,73.04
2019-05-14T07:32:23.092Z,73.31
2019-05-14T07:34:49.835Z,73.62
2019-05-14T07:37:18.107Z,73.11
2019-05-14T07:39:45.017Z,73.35
2019-05-14T07:42:11.629Z,73.25
2019-05-14T07:44:39.072Z,71.76
2019-05-14T07:47:08.199Z,72.01
2019-05-14T07:49:34.606Z,72.39
2019-05-14T07:52:01.237Z,73.56
2019-05-14T07:54:28.372Z,74.53
2019-05-14T07:56:58.866Z,74.68
2019-05-14T07:59:25.018Z,74.34
2019-05-14T08:01:51.586Z,73.23
2019-05-14T08:04:19.999Z,74.66
2019-05-14T08:06:48.763Z,74.35
2019-05-14T08:09:15.415Z,73.63
2019-05-14T08:11:42.125Z,73.75
2019-05-14T08:14:09.170Z,73.54
2019-05-14T08:16:38.071Z,74.49
2019-05-14T08:19:09.123Z,74.62
2019-05-14T08:21:33.251Z,74.59
2019-05-14T08:24:00.002Z,75.31
2019-05-14T08:26:28.758Z,74.16
2019-05-14T08:28:55.219Z,74.55
2019-05-14T08:31:22.183Z,73.40
2019-05-14T08:33:49.248Z,73.03
2019-05-14T08:36:18.387Z,73.39
2019-05-14T08:38:46.561Z,74.87
2019-05-14T08:41:14.262Z,75.18
2019-05-14T08:43:40.976Z,75.25
2019-05-14T08:46:08.352Z,76.01
2019-05-14T08:48:35.501Z,75.51
2019-05-14T08:51:02.231Z,74.58
2019-05-14T08:53:29.155Z,76.50
2019-05-14T08:55:56.061Z,74.31
2019-05-14T08:58:22.770Z,74.69
2019-05-14T09:00:49.377Z,74.58
2019-05-14T09:03:19.053Z,73.21
2019-05-14T09:05:44.961Z,73.44
2019-05-14T09:08:11.785Z,75.28
2019-05-14T09:10:40.305Z,74.27
2019-05-14T09:13:08.621Z,73.76
2019-05-14T09:15:35.402Z,72.86
2019-05-14T09:18:03.589Z,73.27
2019-05-14T09:20:30.641Z,73.45
2019-05-14T09:22:59.394Z,73.46
2019-05-14T09:25:25.834Z,73.02
2019-05-14T09:27:52.366Z,73.54
2019-05-14T09:30:19.800Z,73.72
2019-05-14T09:32:48.953Z,74.88
2019-05-14T09:35:15.402Z,74.25
2019-05-14T09:37:42.185Z,73.79
2019-05-14T09:40:09.283Z,74.45
2019-05-14T09:42:38.981Z,73.09
2019-05-14T09:45:05.437Z,74.37
2019-05-14T09:47:32.305Z,73.79
2019-05-14T09:50:15.114Z,73.18
2019-05-14T09:52:29.286Z,73.89
2019-05-14T09:54:58.423Z,75.39
2019-05-14T09:57:24.903Z,74.42
2019-05-14T09:59:51.519Z,74.94
2019-05-14T10:02:18.378Z,75.23
2019-05-14T10:04:44.949Z,76.35
2019-05-14T10:07:15.222Z,74.51
2019-05-14T10:09:40.459Z,75.06
2019-05-14T10:12:08.993Z,75.42
2019-05-14T10:14:39.063Z,76.00
2019-05-14T10:17:05.647Z,76.97
2019-05-14T10:19:32.286Z,77.11
2019-05-14T10:21:58.947Z,76.79
2019-05-14T10:24:25.632Z,75.57
2019-05-14T10:26:52.190Z,75.85
2019-05-14T10:29:19.831Z,75.83
2019-05-14T10:31:48.613Z,76.20
2019-05-14T10:34:15.425Z,75.94
2019-05-14T10:36:42.248Z,75.96
2019-05-14T10:39:09.508Z,76.21
2019-05-14T10:41:38.538Z,76.71
2019-05-14T10:44:05.137Z,77.08
2019-05-14T10:46:32.036Z,76.30
2019-05-14T10:49:14.650Z,76.19
2019-05-14T10:51:28.328Z,76.11
2019-05-14T10:53:59.100Z,75.27
2019-05-14T10:56:24.815Z,75.67
2019-05-14T10:58:54.729Z,76.18
2019-05-14T11:01:22.871Z,76.75
2019-05-14T11:03:50.133Z,77.44
2019-05-14T11:06:18.799Z,75.89
2019-05-14T11:08:45.515Z,76.65
2019-05-14T11:11:12.421Z,77.79
2019-05-14T11:13:39.513Z,76.71
2019-05-14T11:16:08.593Z,76.00
2019-05-14T11:18:35.435Z,77.24
2019-05-14T11:21:18.903Z,77.03
2019-05-14T11:23:30.747Z,75.61
2019-05-14T11:25:58.182Z,76.22
2019-05-14T11:28:25.153Z,74.55
2019-05-14T11:30:51.854Z,75.41
2019-05-14T11:33:18.836Z,76.76
2019-05-14T11:35:45.593Z,75.86
2019-05-14T11:38:28.505Z,75.18
2019-05-14T11:40:41.460Z,74.21
2019-05-14T11:43:08.445Z,75.00
2019-05-14T11:45:35.469Z,74.99
2019-05-14T11:48:02.161Z,76.32
2019-05-14T11:50:28.926Z,75.67
2019-05-14T11:52:55.683Z,76.74
2019-05-14T11:55:22.458Z,75.71
2019-05-14T11:57:49.022Z,75.86
2019-05-14T12:00:19.501Z,75.86
2019-05-14T12:02:46.489Z,75.31
2019-05-14T12:05:13.501Z,76.24
2019-05-14T12:07:40.145Z,74.69
2019-05-14T12:10:09.099Z,76.35
2019-05-14T12:12:36.111Z,74.22
2019-05-14T12:15:08.705Z,77.04
2019-05-14T12:17:35.063Z,76.41
2019-05-14T12:20:04.163Z,76.84
2019-05-14T12:22:30.702Z,75.40
2019-05-14T12:24:58.462Z,76.35
2019-05-14T12:27:25.144Z,74.96
2019-05-14T12:29:51.783Z,76.25
2019-05-14T12:32:19.000Z,74.52
2019-05-14T12:34:48.706Z,76.51
2019-05-14T12:37:14.639Z,74.90
2019-05-14T12:39:41.322Z,75.47
2019-05-14T12:42:10.948Z,76.13
2019-05-14T12:44:40.729Z,77.88
2019-05-14T12:47:09.235Z,74.55
2019-05-14T12:49:35.130Z,76.36
2019-05-14T12:52:17.818Z,75.69
2019-05-14T12:54:30.418Z,76.05
2019-05-14T12:56:57.092Z,76.65
2019-05-14T12:59:23.950Z,75.66
2019-05-14T13:01:50.695Z,76.36
2019-05-14T13:04:20.092Z,76.60
2019-05-14T13:06:48.216Z,75.08
2019-05-14T13:09:18.086Z,76.08
2019-05-14T13:11:43.241Z,76.13
2019-05-14T13:14:09.936Z,75.58
2019-05-14T13:16:39.475Z,77.00
2019-05-14T13:19:05.213Z,75.09
2019-05-14T13:21:31.893Z,76.71
2019-05-14T13:23:59.695Z,76.74
2019-05-14T13:26:26.398Z,77.97
2019-05-14T13:28:53.165Z,76.61
2019-05-14T13:31:19.846Z,77.42
2019-05-14T13:33:48.827Z,76.41
2019-05-14T13:36:15.059Z,75.19
2019-05-14T13:38:41.942Z,76.04
2019-05-14T13:41:08.856Z,75.12
2019-05-14T13:43:35.644Z,75.69
2019-05-14T13:46:02.377Z,75.42
2019-05-14T13:48:29.802Z,76.46
2019-05-14T13:50:56.975Z,77.10
2019-05-14T13:53:23.551Z,75.93
2019-05-14T13:55:57.097Z,75.05
2019-05-14T13:58:20.810Z,75.19
2019-05-14T14:00:51.544Z,75.06
2019-05-14T14:03:19.656Z,77.14
2019-05-14T14:05:45.057Z,75.83
2019-05-14T14:08:11.815Z,76.83
2019-05-14T14:10:44.980Z,76.86
2019-05-14T14:13:10.954Z,77.41
2019-05-14T14:15:38.303Z,76.44
2019-05-14T14:18:04.325Z,76.54
2019-05-14T14:20:31.263Z,75.71
2019-05-14T14:23:00.152Z,75.92
2019-05-14T14:25:29.576Z,76.96
2019-05-14T14:27:55.579Z,76.29
2019-05-14T14:30:22.525Z,77.56
2019-05-14T14:32:49.653Z,76.42
2019-05-14T14:35:22.674Z,75.96
2019-05-14T14:37:45.959Z,75.47
2019-05-14T14:40:13.245Z,75.15
2019-05-14T14:42:40.615Z,75.28
2019-05-14T14:45:09.016Z,75.50
2019-05-14T14:47:35.898Z,75.83
2019-05-14T14:50:09.284Z,74.44
2019-05-14T14:52:36.074Z,76.78
2019-05-14T14:55:05.244Z,76.05
2019-05-14T14:57:32.042Z,75.65
2019-05-14T14:59:58.706Z,75.61
2019-05-14T15:02:25.239Z,76.18
2019-05-14T15:04:51.933Z,76.15
2019-05-14T15:07:18.813Z,75.60
2019-05-14T15:09:45.422Z,75.55
2019-05-14T15:12:12.218Z,75.86
2019-05-14T15:14:39.535Z,76.16
2019-05-14T15:17:09.291Z,76.51
2019-05-14T15:19:35.069Z,77.46
2019-05-14T15:22:01.976Z,76.15
2019-05-14T15:24:28.670Z,76.03
2019-05-14T15:26:55.555Z,76.72
2019-05-14T15:29:22.250Z,75.76
2019-05-14T15:31:51.576Z,75.39
2019-05-14T15:34:19.042Z,75.52
2019-05-14T15:36:49.004Z,76.11
2019-05-14T15:39:14.722Z,75.39
2019-05-14T15:41:41.841Z,75.00
2019-05-14T15:44:09.207Z,76.25
2019-05-14T15:46:41.530Z,76.63
2019-05-14T15:49:05.112Z,76.48
2019-05-14T15:51:32.084Z,75.74
2019-05-14T15:54:11.580Z,75.35
2019-05-14T15:56:29.797Z,75.93
2019-05-14T15:59:01.075Z,75.45
2019-05-14T16:01:28.382Z,75.05
2019-05-14T16:03:54.323Z,75.93
2019-05-14T16:06:21.170Z,76.33
2019-05-14T16:08:48.847Z,76.98
2019-05-14T16:11:18.384Z,76.85
2019-05-14T16:13:44.615Z,75.73
2019-05-14T16:16:11.477Z,75.46
2019-05-14T16:18:38.628Z,75.86
2019-05-14T16:21:05.586Z,77.47
2019-05-14T16:23:32.180Z,77.56
2019-05-14T16:25:59.069Z,76.77
2019-05-14T16:28:28.531Z,76.98
2019-05-14T16:30:54.190Z,76.66
2019-05-14T16:33:21.263Z,76.92
2019-05-14T16:35:48.577Z,77.17
2019-05-14T16:38:15.669Z,77.27
2019-05-14T16:40:42.494Z,77.36
2019-05-14T16:43:09.279Z,77.11
2019-05-14T16:45:36.076Z,76.21
2019-05-14T16:48:03.051Z,75.85
2019-05-14T16:50:29.692Z,76.49
2019-05-14T16:52:58.872Z,76.77
2019-05-14T16:55:29.596Z,76.38
2019-05-14T16:57:53.890Z,76.63
2019-05-14T17:00:21.066Z,75.82
2019-05-14T17:02:48.345Z,76.11
2019-05-14T17:05:15.502Z,76.16
2019-05-14T17:07:42.169Z,76.38
2019-05-14T17:10:09.478Z,76.55
2019-05-14T17:12:49.767Z,76.48
2019-05-14T17:15:05.491Z,76.36
2019-05-14T17:17:32.418Z,76.31
2019-05-14T17:19:58.975Z,77.07
2019-05-14T17:22:30.780Z,77.22
2019-05-14T17:24:54.137Z,76.08
2019-05-14T17:27:20.709Z,75.76
2019-05-14T17:29:48.481Z,76.28
2019-05-14T17:32:15.589Z,77.33
2019-05-14T17:34:42.317Z,76.71
2019-05-14T17:37:09.191Z,76.44
2019-05-14T17:39:35.809Z,77.03
2019-05-14T17:42:02.586Z,76.41
2019-05-14T17:44:29.473Z,75.72
2019-05-14T17:46:58.569Z,76.46
2019-05-14T17:49:24.793Z,77.19
2019-05-14T17:51:51.528Z,76.13
2019-05-14T17:54:18.677Z,76.33
2019-05-14T17:56:45.784Z,76.89
2019-05-14T17:59:12.663Z,75.37
2019-05-14T18:01:40.471Z,75.65
2019-05-14T18:04:09.056Z,76.40
2019-05-14T18:06:35.867Z,75.67
2019-05-14T18:09:04.334Z,76.08
2019-05-14T18:11:31.226Z,76.14
2019-05-14T18:13:58.965Z,76.46
2019-05-14T18:16:28.487Z,76.00
2019-05-14T18:18:58.306Z,75.75
2019-05-14T18:21:25.070Z,76.63
2019-05-14T18:23:51.648Z,77.32
2019-05-14T18:26:18.935Z,76.18
2019-05-14T18:28:46.176Z,76.00
2019-05-14T18:31:12.946Z,76.42
2019-05-14T18:33:40.200Z,76.77
2019-05-14T18:36:07.348Z,77.26
2019-05-14T18:38:33.953Z,76.28
2019-05-14T18:41:00.879Z,75.42
2019-05-14T18:43:28.981Z,75.60
2019-05-14T18:45:58.298Z,76.10
2019-05-14T18:48:24.699Z,75.95
2019-05-14T18:50:51.368Z,76.26
2019-05-14T18:53:19.105Z,75.73
2019-05-14T18:55:48.778Z,76.14
2019-05-14T18:58:19.559Z,76.63
2019-05-14T19:00:47.899Z,76.45
2019-05-14T19:03:15.146Z,76.48
2019-05-14T19:05:42.108Z,76.48
2019-05-14T19:08:08.920Z,76.73
2019-05-14T19:10:35.671Z,76.70
2019-05-14T19:13:02.433Z,76.41
2019-05-14T19:15:29.265Z,75.73
2019-05-14T19:17:59.767Z,75.95
2019-05-14T19:20:24.749Z,76.01
2019-05-14T19:22:51.569Z,76.38
2019-05-14T19:25:19.456Z,76.15
2019-05-14T19:27:48.764Z,76.16
2019-05-14T19:30:16.284Z,76.14
2019-05-14T19:32:43.051Z,75.90
2019-05-14T19:35:10.035Z,76.94
2019-05-14T19:37:39.136Z,76.23
2019-05-14T19:40:09.238Z,76.17
2019-05-14T19:42:39.066Z,76.66
2019-05-14T19:45:08.456Z,76.56
2019-05-14T19:47:36.203Z,76.58
2019-05-14T19:50:09.051Z,77.10
2019-05-14T19:52:35.956Z,77.37
2019-05-14T19:55:05.197Z,77.57
2019-05-14T19:57:31.953Z,76.89
2019-05-14T19:59:58.844Z,76.52
2019-05-14T20:02:25.516Z,78.79
2019-05-14T20:04:52.251Z,77.55
2019-05-14T20:07:18.862Z,77.13
2019-05-14T20:09:45.600Z,78.08
2019-05-14T20:12:12.490Z,77.85
2019-05-14T20:14:39.097Z,78.32
2019-05-14T20:17:05.690Z,77.22
2019-05-14T20:19:32.464Z,77.36
2019-05-14T20:21:59.175Z,77.59
2019-05-14T20:24:28.159Z,77.87
2019-05-14T20:27:05.911Z,77.56
2019-05-14T20:29:23.385Z,78.04
2019-05-14T20:31:50.172Z,78.25
2019-05-14T20:34:19.151Z,77.37
2019-05-14T20:36:48.083Z,77.34
2019-05-14T20:39:14.816Z,78.42
2019-05-14T20:41:41.499Z,77.78
2019-05-14T20:44:08.200Z,77.02
2019-05-14T20:46:34.909Z,78.39
2019-05-14T20:49:01.619Z,78.09
2019-05-14T20:51:30.457Z,78.22
2019-05-14T20:53:58.076Z,78.35
2019-05-14T20:56:25.049Z,77.50
2019-05-14T20:58:51.637Z,78.19
2019-05-14T21:01:18.567Z,78.44
2019-05-14T21:03:48.178Z,77.90
2019-05-14T21:06:14.378Z,77.62
2019-05-14T21:08:41.053Z,77.41
2019-05-14T21:11:08.215Z,77.96
2019-05-14T21:13:35.298Z,79.19
2019-05-14T21:16:02.153Z,79.52
2019-05-14T21:18:35.043Z,78.47
2019-05-14T21:20:58.325Z,78.17
2019-05-14T21:23:25.101Z,78.88
2019-05-14T21:25:51.692Z,78.72
2019-05-14T21:28:18.432Z,78.75
2019-05-14T21:30:45.236Z,78.78
2019-05-14T21:33:12.041Z,79.45
2019-05-14T21:35:39.201Z,79.33
2019-05-14T21:38:08.889Z,78.76
2019-05-14T21:40:34.515Z,79.62
2019-05-14T21:43:01.177Z,79.84
2019-05-14T21:45:27.875Z,79.42
2019-05-14T21:47:54.538Z,78.99
2019-05-14T21:50:21.566Z,78.93
2019-05-14T21:52:49.619Z,78.49
2019-05-14T21:55:19.675Z,78.48
2019-05-14T21:57:54.298Z,78.91
2019-05-14T22:00:24.966Z,78.22
2019-05-14T22:02:54.060Z,78.52
2019-05-14T22:05:20.732Z,79.05
2019-05-14T22:07:48.486Z,78.99
2019-05-14T22:10:18.821Z,78.93
2019-05-14T22:12:44.909Z,78.47
2019-05-14T22:15:12.411Z,79.11
2019-05-14T22:17:39.063Z,78.26
2019-05-14T22:20:08.229Z,78.62
2019-05-14T22:22:35.393Z,78.63
2019-05-14T22:25:05.681Z,78.85
2019-05-14T22:27:32.265Z,79.06
2019-05-14T22:29:58.974Z,79.08
2019-05-14T22:32:25.531Z,78.63
2019-05-14T22:34:52.187Z,78.16
2019-05-14T22:37:20.306Z,78.29
2019-05-14T22:39:48.052Z,78.66
2019-05-14T22:42:15.153Z,79.00
2019-05-14T22:44:41.939Z,78.85
2019-05-14T22:47:08.513Z,79.28
2019-05-14T22:49:35.146Z,79.02
2019-05-14T22:52:01.815Z,78.45
2019-05-14T22:54:29.239Z,78.18
2019-05-14T22:56:56.263Z,78.61
2019-05-14T22:59:23.078Z,78.97
2019-05-14T23:01:49.677Z,78.16
2019-05-14T23:04:18.147Z,78.11
2019-05-14T23:06:44.788Z,78.65
2019-05-14T23:09:11.350Z,77.50
2019-05-14T23:11:38.481Z,79.42
2019-05-14T23:14:05.630Z,79.05
2019-05-14T23:16:37.752Z,79.04
2019-05-14T23:19:00.952Z,78.34
2019-05-14T23:21:28.344Z,78.45
2019-05-14T23:23:55.341Z,78.79
2019-05-14T23:26:22.019Z,78.64
2019-05-14T23:28:49.150Z,78.62
2019-05-14T23:31:16.224Z,78.96
2019-05-14T23:33:43.002Z,78.41
2019-05-14T23:36:09.810Z,78.17
2019-05-14T23:38:38.635Z,78.24
2019-05-14T23:41:08.443Z,78.62
2019-05-14T23:43:34.246Z,78.36
2019-05-14T23:46:00.822Z,78.71
2019-05-14T23:48:27.511Z,78.95
2019-05-14T23:50:54.144Z,78.35
2019-05-14T23:53:20.763Z,78.24
2019-05-14T23:55:48.159Z,79.10
2019-05-14T23:58:15.219Z,78.79
